Home > Products > Valid Products > TAF

000
FTUS43 KILX 271416 AAA
TAFBMI
TAF AMD
KBMI 271416Z 2714/2812 17013KT P6SM VCSH SCT015 OVC080
      TEMPO 2714/2716 BKN015
     FM271600 17014G20KT P6SM -RA SCT020 OVC080
      TEMPO 2716/2719 5SM -SHRA BR BKN020
     FM271900 17014G22KT P6SM VCTS OVC035CB
     FM280200 18012KT P6SM -RA VCTS OVC025CB=



000
FTUS43 KILX 270806 AAA
TAFCMI
TAF AMD
KCMI 270806Z 2708/2806 15006KT P6SM VCSH SCT045 OVC070
     FM271200 18011KT P6SM VCSH BKN045
     FM271600 17015G22KT P6SM OVC090
     FM272100 18016G24KT P6SM VCTS SCT030CB BKN060
     FM280100 16010KT P6SM VCTS SCT025CB BKN050=



000
FTUS43 KILX 270604 AAA
TAFSPI
TAF AMD
KSPI 270604Z 2706/2806 17010KT P6SM VCTS OVC040CB
     FM270900 18007KT P6SM VCSH BKN045
     FM271500 17013KT P6SM OVC080
     FM272000 18015G22KT P6SM VCTS SCT030CB BKN050
     FM280100 16011KT P6SM VCTS SCT025CB BKN040=



000
FTUS43 KILX 262340
TAFDEC
TAF
KDEC 262340Z 2700/2724 19008KT P6SM SCT250
     FM270500 17007KT P6SM BKN150
     FM271000 15006KT P6SM VCTS SCT035 BKN060CB
     FM271200 15009KT 3SM -TSRA BR BKN035CB
     FM271500 17012KT 6SM -SHRA BR OVC045
     FM272000 18014KT P6SM VCTS SCT025CB BKN050=



000
FTUS43 KILX 262340
TAFSPI
TAF
KSPI 262340Z 2700/2724 19010KT P6SM BKN250
     FM270700 16005KT P6SM VCTS SCT035 BKN070CB
     FM271000 17009KT 3SM -TSRA BR BKN035CB
     FM271300 17012KT 6SM -SHRA BR OVC040
     FM271800 18014KT P6SM VCTS SCT025CB BKN050=



000
FTUS43 KILX 262340
TAFBMI
TAF
KBMI 262340Z 2700/2724 20010KT P6SM BKN250
     FM270800 16005KT P6SM VCTS SCT030CB BKN060
     FM271100 18009KT 3SM -TSRA BR BKN035CB
     FM271400 18013KT 6SM SHRA BR OVC040
     FM271900 18015KT P6SM VCTS SCT025CB BKN050=



000
FTUS43 KILX 262340
TAFCMI
TAF
KCMI 262340Z 2700/2724 18009KT P6SM SCT250
     FM270600 17007KT P6SM SCT025 BKN150
     FM271100 15006KT P6SM VCTS SCT025 BKN060CB
     FM271300 15009KT 3SM -TSRA BR BKN035CB
     FM271600 17012KT 6SM -SHRA BR OVC045
     FM272000 18014KT P6SM VCTS SCT025CB BKN050=



000
FTUS43 KILX 262340
TAFPIA
TAF
KPIA 262340Z 2700/2724 19007KT P6SM BKN250
     FM270900 16005KT P6SM VCTS SCT030CB BKN060
     FM271100 18009KT 3SM -TSRA BR BKN035CB
     FM271400 18013KT 6SM -SHRA BR OVC040
     FM271900 18015KT P6SM VCTS SCT020CB BKN050=



000
FTUS43 KILX 261650 AAC
TAFCMI
TAF AMD
KCMI 261650Z 2617/2712 16012G20KT P6SM SCT050 BKN110
     FM262000 20012KT P6SM SCT060 BKN200
     FM270300 18007KT P6SM VCSH BKN100=



000
FTUS43 KILX 261649 AAD
TAFDEC
TAF AMD
KDEC 261649Z 2617/2712 16012KT P6SM SCT050 BKN150
     FM262000 20012KT P6SM SCT070 BKN250
     FM270200 18008KT P6SM VCSH BKN090=



000
FTUS43 KILX 261347 AAA
TAFCMI
TAF AMD
KCMI 261347Z 2614/2712 20010G20KT 4SM TSRA SCT010CB OVC035
      TEMPO 2614/2615 29020G35KT 2SM +TSRA OVC015CB
     FM261700 20011KT P6SM BKN050
     FM262100 20011KT P6SM VCTS BKN100CB
     FM270300 18007KT P6SM VCSH BKN100=



000
FTUS43 KILX 261125
TAFPIA
TAF
KPIA 261125Z 2612/2712 28011KT P6SM VCTS SCT020CB OVC060
      TEMPO 2612/2613 2SM TSRA OVC020CB
     FM261500 19009KT P6SM BKN035
     FM262000 20010KT P6SM SCT110
     FM270000 17007KT P6SM VCSH BKN100=



000
FTUS43 KILX 261125
TAFSPI
TAF
KSPI 261125Z 2612/2712 19007KT P6SM VCTS SCT020CB OVC060
      TEMPO 2612/2614 2SM TSRA OVC020CB
     FM261600 19010KT P6SM BKN050
     FM261900 20010KT P6SM SCT070
     FM270000 17008KT P6SM VCSH BKN100=



000
FTUS43 KILX 261125
TAFCMI
TAF
KCMI 261125Z 2612/2712 18008KT P6SM SCT008 BKN020
      TEMPO 2612/2613 BKN008
     FM261300 19008KT P6SM VCTS SCT020CB OVC060
      TEMPO 2613/2616 2SM TSRA OVC020CB
     FM261700 20011KT P6SM BKN050
     FM262100 20011KT P6SM VCTS BKN100CB
     FM270300 18007KT P6SM VCSH BKN100=



000
FTUS43 KILX 261125
TAFDEC
TAF
KDEC 261125Z 2612/2712 19008KT P6SM SCT008 BKN020
     FM261300 19008KT P6SM VCTS SCT020CB OVC060
      TEMPO 2613/2615 2SM TSRA OVC020CB
     FM261700 20011KT P6SM BKN060
     FM262100 20011KT P6SM SCT100
     FM270200 18008KT P6SM VCSH BKN090=



000
FTUS43 KILX 261125
TAFBMI
TAF
KBMI 261125Z 2612/2712 19008KT P6SM VCTS SCT020CB OVC060
      TEMPO 2612/2614 2SM TSRA OVC020CB
     FM261600 19011KT P6SM BKN050
     FM262000 21011KT P6SM VCTS SCT100CB
     FM270000 18008KT P6SM VCSH BKN110=



000
FTUS43 KILX 260529
TAFCMI
TAF
KCMI 260529Z 2606/2706 17009KT P6SM SCT020 BKN250
      TEMPO 2606/2610 BKN020
     FM261300 18008KT P6SM VCSH SCT050 BKN150
     FM261500 19011KT P6SM SCT050
     FM262100 18015KT P6SM VCTS BKN050CB=



000
FTUS43 KILX 252329
TAFDEC
TAF
KDEC 252329Z 2600/2624 19013KT P6SM BKN150
     FM260200 18008KT P6SM BKN120
     FM261200 19010KT P6SM VCTS SCT050CB BKN200
     FM261500 20012KT P6SM SCT050
     FM261900 20014KT P6SM VCTS BKN050CB=



000
FTUS43 KILX 252329
TAFCMI
TAF
KCMI 252329Z 2600/2624 19015KT P6SM BKN120
     FM260200 18009KT P6SM BKN120
     FM261300 18011KT P6SM VCTS SCT050CB BKN200
     FM261500 20013KT P6SM SCT050
     FM262000 20015KT P6SM VCTS BKN050CB=



000
FTUS43 KILX 252329
TAFBMI
TAF
KBMI 252329Z 2600/2624 20015KT P6SM BKN120
     FM260200 18009KT P6SM BKN120
     FM261200 19011KT P6SM VCTS SCT050CB BKN200
     FM261500 20013KT P6SM SCT050
     FM261900 20015KT P6SM VCTS BKN050CB=



000
FTUS43 KILX 252329
TAFPIA
TAF
KPIA 252329Z 2600/2624 20014KT P6SM BKN120
     FM260200 18008KT P6SM BKN120
     FM261100 19009KT P6SM VCTS SCT050CB BKN200
     FM261400 21012KT P6SM SCT050
     FM261800 20014KT P6SM VCTS BKN050CB=



000
FTUS43 KILX 252329
TAFSPI
TAF
KSPI 252329Z 2600/2624 19014KT P6SM BKN120
     FM260200 18008KT P6SM BKN120
     FM261100 19010KT P6SM VCTS SCT050CB BKN200
     FM261400 20012KT P6SM SCT050
     FM261800 20014KT P6SM VCTS BKN050CB=



000
FTUS43 KILX 251735
TAFBMI
TAF
KBMI 251735Z 2518/2618 18014G19KT P6SM SCT035 BKN250
     FM252100 19014G21KT P6SM VCTS SCT050CB BKN150
     FM260100 18009KT P6SM BKN040 BKN120
     FM261200 19011KT P6SM VCTS BKN045CB=



000
FTUS43 KILX 251735
TAFSPI
TAF
KSPI 251735Z 2518/2618 18012G17KT P6SM SCT040 BKN150
     FM251900 18011G18KT P6SM VCTS SCT050CB BKN120
     FM260000 18007KT P6SM BKN050 BKN120
     FM261100 19010KT P6SM VCTS BKN050CB=



000
FTUS43 KILX 251735
TAFCMI
TAF
KCMI 251735Z 2518/2618 20014G19KT P6SM SCT035 BKN250
     FM252100 19012G20KT P6SM VCTS SCT050CB BKN150
     FM260200 18007KT P6SM BKN050 BKN120
     FM261300 18011KT P6SM VCTS BKN045CB=



000
FTUS43 KILX 251735
TAFDEC
TAF
KDEC 251735Z 2518/2618 18014G19KT P6SM SCT040 BKN250
     FM252000 19014G21KT P6SM VCTS SCT050CB BKN150
     FM260100 19008KT P6SM BKN050 BKN120
     FM261200 19010KT P6SM VCTS BKN050CB=



000
FTUS43 KILX 251651 AAA
TAFCMI
TAF AMD
KCMI 251651Z 2517/2612 19011KT P6SM SCT120 BKN250
     FM251900 19012G20KT P6SM VCTS SCT050CB BKN150
     FM260300 18010KT P6SM VCSH BKN050 BKN120=



000
FTUS43 KILX 251647 AAB
TAFPIA
TAF AMD
KPIA 251647Z 2517/2612 17010KT P6SM SCT120 BKN250
     FM251800 18012G18KT P6SM VCTS SCT050CB BKN150
     FM260200 18008KT P6SM VCSH BKN050 BKN120=



000
FTUS43 KILX 251646 AAA
TAFSPI
TAF AMD
KSPI 251646Z 2517/2612 18010KT P6SM SCT100 BKN250
     FM251800 18011G18KT P6SM VCTS SCT050CB BKN150
     FM260200 19010KT P6SM VCSH BKN050 BKN120=



000
FTUS43 KILX 250527
TAFPIA
TAF
KPIA 250527Z 2506/2606 18006KT P6SM BKN250
     FM251600 18010G18KT P6SM VCTS SCT050CB BKN250
     FM260200 18007KT P6SM SCT050 BKN120=



000
FTUS43 KILX 250527
TAFDEC
TAF
KDEC 250527Z 2506/2606 19007KT P6SM BKN250
     FM251600 18010G18KT P6SM VCTS SCT050CB BKN250
     FM260200 18007KT P6SM SCT050 BKN120=



000
FTUS43 KILX 250527
TAFSPI
TAF
KSPI 250527Z 2506/2606 18008KT P6SM BKN250
     FM251500 18010G18KT P6SM VCTS SCT050CB BKN250
     FM260200 18007KT P6SM SCT050 BKN120=



000
FTUS43 KILX 250527
TAFCMI
TAF
KCMI 250527Z 2506/2606 18007KT P6SM BKN250
     FM251800 18011G19KT P6SM VCTS SCT050CB BKN250
     FM260300 18008KT P6SM SCT050 BKN120=



000
FTUS43 KILX 250527
TAFBMI
TAF
KBMI 250527Z 2506/2606 18008KT P6SM BKN250
     FM251700 18012G20KT P6SM VCTS SCT050CB BKN250
     FM260300 18008KT P6SM SCT050 BKN120=



    US Dept of Commerce
    National Oceanic and Atmospheric Administration
    National Weather Service
    1325 East West Highway
    Silver Spring, MD 20910
    Page Author: NWS Internet Services Team
Disclaimer
Information Quality
Credits
Glossary
Privacy Policy
Freedom of Information Act (FOIA)
About Us
Career Opportunities